createdAt,value
2023-09-29T00:03:50.797Z,1019.7
2023-09-29T00:09:57.536Z,1019.7
2023-09-29T00:16:03.354Z,1019.7
2023-09-29T00:22:09.889Z,1019.7
2023-09-29T00:28:16.305Z,1019.7
2023-09-29T00:34:22.689Z,1019.7
2023-09-29T00:40:29.095Z,1019.7
2023-09-29T00:46:35.495Z,1019.7
2023-09-29T00:52:41.462Z,1019.6
2023-09-29T00:58:47.635Z,1019.6
2023-09-29T01:04:54.052Z,1019.6
2023-09-29T01:11:00.437Z,1019.6
2023-09-29T01:17:09.301Z,1019.6
2023-09-29T01:23:15.669Z,1019.6
2023-09-29T01:29:21.728Z,1019.6
2023-09-29T01:35:27.854Z,1019.6
2023-09-29T01:41:34.440Z,1019.6
2023-09-29T01:47:41.128Z,1019.6
2023-09-29T01:53:47.245Z,1019.6
2023-09-29T01:59:53.507Z,1019.5
2023-09-29T02:05:59.854Z,1019.5
2023-09-29T02:12:06.221Z,1019.5
2023-09-29T02:18:13.145Z,1019.5
2023-09-29T02:24:19.797Z,1019.5
2023-09-29T02:30:26.030Z,1019.5
2023-09-29T02:36:32.380Z,1019.6
2023-09-29T02:42:38.408Z,1019.6
2023-09-29T02:48:44.584Z,1019.6
2023-09-29T02:54:50.744Z,1019.6
2023-09-29T03:00:57.165Z,1019.6
2023-09-29T03:07:03.533Z,1019.7
2023-09-29T03:13:09.492Z,1019.7
2023-09-29T03:19:15.887Z,1019.8
2023-09-29T03:25:22.256Z,1019.7
2023-09-29T03:31:28.338Z,1019.7
2023-09-29T03:37:34.672Z,1019.7
2023-09-29T03:43:40.853Z,1019.7
2023-09-29T03:49:47.241Z,1019.8
2023-09-29T03:55:53.235Z,1019.7
2023-09-29T04:01:59.428Z,1019.7
2023-09-29T04:08:05.662Z,1019.7
2023-09-29T04:14:34.048Z,1019.7
2023-09-29T04:20:40.952Z,1019.8
2023-09-29T04:26:47.185Z,1019.8
2023-09-29T04:32:53.363Z,1019.9
2023-09-29T04:39:00.124Z,1019.9
2023-09-29T04:45:06.624Z,1019.9
2023-09-29T04:51:13.081Z,1019.9
2023-09-29T04:57:19.270Z,1020
2023-09-29T05:03:25.775Z,1020
2023-09-29T05:09:32.283Z,1020
2023-09-29T05:15:38.477Z,1020
2023-09-29T05:21:44.859Z,1020.1
2023-09-29T05:27:51.251Z,1020.1
2023-09-29T05:33:57.468Z,1020.1
2023-09-29T05:40:03.426Z,1020.2
2023-09-29T05:46:09.639Z,1020.2
2023-09-29T05:52:15.797Z,1020.3
2023-09-29T05:58:22.192Z,1020.3
2023-09-29T06:04:28.588Z,1020.3
2023-09-29T06:10:34.757Z,1020.4
2023-09-29T06:16:41.172Z,1020.4
2023-09-29T06:22:47.560Z,1020.4
2023-09-29T06:28:53.944Z,1020.4
2023-09-29T06:34:59.734Z,1020.4
2023-09-29T06:41:06.103Z,1020.4
2023-09-29T06:47:12.310Z,1020.5
2023-09-29T06:53:18.711Z,1020.4
2023-09-29T06:59:25.202Z,1020.5
2023-09-29T07:05:31.377Z,1020.6
2023-09-29T07:11:37.631Z,1020.7
2023-09-29T07:17:44.434Z,1020.8
2023-09-29T07:23:53.223Z,1020.9
2023-09-29T07:30:00.849Z,1020.9
2023-09-29T07:36:06.940Z,1020.9
2023-09-29T07:42:14.056Z,1020.9
2023-09-29T07:48:21.498Z,1020.9
2023-09-29T07:54:28.467Z,1021
2023-09-29T08:00:35.063Z,1021
2023-09-29T08:06:41.868Z,1021
2023-09-29T08:12:48.458Z,1021.1
2023-09-29T08:18:55.715Z,1021.1
2023-09-29T08:25:02.916Z,1021.1
2023-09-29T08:31:09.533Z,1021.2
2023-09-29T08:37:16.272Z,1021.2
2023-09-29T08:43:22.477Z,1021.2
2023-09-29T08:49:50.388Z,1021.2
2023-09-29T08:55:58.598Z,1021.2
2023-09-29T09:02:05.838Z,1021.3
2023-09-29T09:08:12.219Z,1021.2
2023-09-29T09:14:18.597Z,1021.3
2023-09-29T09:20:24.995Z,1021.2
2023-09-29T09:26:31.181Z,1021.2
2023-09-29T09:32:37.835Z,1021.2
2023-09-29T09:38:44.456Z,1021.1
2023-09-29T09:44:50.788Z,1021.1
2023-09-29T09:50:57.597Z,1021.1
2023-09-29T09:57:03.648Z,1021.1
2023-09-29T10:03:09.975Z,1021
2023-09-29T10:09:16.417Z,1021
2023-09-29T10:15:23.008Z,1021
2023-09-29T10:21:29.547Z,1021
2023-09-29T10:27:35.525Z,1021
2023-09-29T10:33:42.218Z,1020.9
2023-09-29T10:39:48.714Z,1020.8
2023-09-29T10:45:55.141Z,1020.8
2023-09-29T10:52:01.534Z,1020.7
2023-09-29T10:58:09.880Z,1020.7
2023-09-29T11:04:18.077Z,1020.8
2023-09-29T11:10:24.383Z,1020.6
2023-09-29T11:16:30.789Z,1020.5
2023-09-29T11:22:36.951Z,1020.5
2023-09-29T11:28:43.353Z,1020.3
2023-09-29T11:34:49.314Z,1020.4
2023-09-29T11:40:55.515Z,1020.3
2023-09-29T11:47:01.901Z,1020.3
2023-09-29T11:53:08.287Z,1020.3
2023-09-29T11:59:14.270Z,1020.3
2023-09-29T12:05:20.496Z,1020.3
2023-09-29T12:11:26.895Z,1020.1
2023-09-29T12:17:33.310Z,1020.1
2023-09-29T12:23:39.468Z,1020.1
2023-09-29T12:29:45.864Z,1020.1
2023-09-29T12:35:52.476Z,1020.1
2023-09-29T12:41:58.677Z,1020
2023-09-29T12:48:05.095Z,1020
2023-09-29T12:54:11.633Z,1020
2023-09-29T13:00:18.024Z,1020
2023-09-29T13:06:25.198Z,1019.9
2023-09-29T13:12:33.696Z,1019.9
2023-09-29T13:18:40.335Z,1019.9
2023-09-29T13:24:46.705Z,1019.9
2023-09-29T13:30:56.980Z,1019.9
2023-09-29T13:37:03.573Z,1019.7
2023-09-29T13:43:09.709Z,1019.8
2023-09-29T13:49:15.747Z,1019.8
2023-09-29T13:55:22.151Z,1019.8
2023-09-29T14:01:28.286Z,1019.7
2023-09-29T14:07:34.698Z,1019.5
2023-09-29T14:13:41.074Z,1019.5
2023-09-29T14:19:47.261Z,1019.5
2023-09-29T14:25:53.658Z,1019.5
2023-09-29T14:32:00.115Z,1019.5
2023-09-29T14:38:06.235Z,1019.4
2023-09-29T14:44:12.067Z,1019.5
2023-09-29T14:50:18.402Z,1019.5
2023-09-29T14:56:24.809Z,1019.5
2023-09-29T15:02:31.182Z,1019.4
2023-09-29T15:08:37.170Z,1019.3
2023-09-29T15:14:43.571Z,1019.4
2023-09-29T15:20:50.006Z,1019.4
2023-09-29T15:26:55.955Z,1019.4
2023-09-29T15:33:02.592Z,1019.4
2023-09-29T15:39:08.959Z,1019.5
2023-09-29T15:45:15.371Z,1019.5
2023-09-29T15:51:26.266Z,1019.5
2023-09-29T15:57:32.688Z,1019.5
2023-09-29T16:03:39.931Z,1019.5
2023-09-29T16:09:46.841Z,1019.5
2023-09-29T16:15:53.227Z,1019.5
2023-09-29T16:21:59.529Z,1019.5
2023-09-29T16:28:06.025Z,1019.6
2023-09-29T16:34:12.344Z,1019.5
2023-09-29T16:40:30.699Z,1019.4
2023-09-29T16:46:37.070Z,1019.5
2023-09-29T16:52:43.477Z,1019.5
2023-09-29T16:58:49.864Z,1019.6
2023-09-29T17:04:56.185Z,1019.7
2023-09-29T17:11:02.636Z,1019.7
2023-09-29T17:17:09.226Z,1019.7
2023-09-29T17:23:15.838Z,1019.9
2023-09-29T17:29:22.460Z,1019.9
2023-09-29T17:35:28.623Z,1020
2023-09-29T17:41:35.016Z,1019.9
2023-09-29T17:47:41.096Z,1020
2023-09-29T17:53:47.407Z,1020
2023-09-29T17:59:53.816Z,1020.1
2023-09-29T18:06:00.235Z,1020.2
2023-09-29T18:12:06.406Z,1020.2
2023-09-29T18:18:13.009Z,1020.3
2023-09-29T18:24:19.431Z,1020.3
2023-09-29T18:30:25.355Z,1020.4
2023-09-29T18:36:31.973Z,1020.4
2023-09-29T18:42:37.833Z,1020.5
2023-09-29T18:48:44.003Z,1020.6
2023-09-29T18:54:50.495Z,1020.7
2023-09-29T19:00:56.692Z,1020.7
2023-09-29T19:07:02.914Z,1020.7
2023-09-29T19:13:08.728Z,1020.8
2023-09-29T19:19:14.837Z,1021
2023-09-29T19:25:21.261Z,1021.2
2023-09-29T19:31:27.141Z,1021.3
2023-09-29T19:37:33.824Z,1021.4
2023-09-29T19:43:40.225Z,1021.5
2023-09-29T19:49:46.814Z,1021.6
2023-09-29T19:55:53.078Z,1021.4
2023-09-29T20:01:59.208Z,1021.4
2023-09-29T20:08:05.585Z,1021.6
2023-09-29T20:14:11.971Z,1021.6
2023-09-29T20:20:18.575Z,1021.8
2023-09-29T20:26:24.970Z,1021.9
2023-09-29T20:32:31.167Z,1021.9
2023-09-29T20:38:37.343Z,1021.8
2023-09-29T20:44:43.535Z,1022
2023-09-29T20:50:49.920Z,1022.1
2023-09-29T20:56:55.933Z,1022.2
2023-09-29T21:03:02.565Z,1022.4
2023-09-29T21:09:08.560Z,1022.6
2023-09-29T21:15:15.116Z,1022.6
2023-09-29T21:21:21.896Z,1022.6
2023-09-29T21:27:28.314Z,1022.8
2023-09-29T21:33:34.499Z,1022.9
2023-09-29T21:39:40.577Z,1022.8
2023-09-29T21:45:47.111Z,1022.8
2023-09-29T21:51:53.873Z,1022.8
2023-09-29T21:58:00.759Z,1022.9
2023-09-29T22:04:09.980Z,1022.9
2023-09-29T22:10:16.135Z,1023.1
2023-09-29T22:16:22.329Z,1023.2
2023-09-29T22:22:28.876Z,1023.3
2023-09-29T22:28:35.277Z,1023.3
2023-09-29T22:34:41.992Z,1023.3
2023-09-29T22:40:48.389Z,1023.3
2023-09-29T22:46:54.974Z,1023.3
2023-09-29T22:53:01.163Z,1023.3
2023-09-29T22:59:07.539Z,1023.4
2023-09-29T23:05:13.757Z,1023.2
2023-09-29T23:11:20.137Z,1023.3
2023-09-29T23:17:26.340Z,1023.3
2023-09-29T23:23:32.521Z,1023.3
2023-09-29T23:29:39.123Z,1023.4
2023-09-29T23:35:45.511Z,1023.5
2023-09-29T23:41:51.707Z,1023.6
2023-09-29T23:47:57.695Z,1023.7
2023-09-29T23:54:04.117Z,1023.7
